createdAt,value
2023-03-04T00:00:50.816Z,16.73
2023-03-04T00:03:19.765Z,15.80
2023-03-04T00:05:47.823Z,11.50
2023-03-04T00:08:16.317Z,16.45
2023-03-04T00:10:45.798Z,14.63
2023-03-04T00:13:13.488Z,15.05
2023-03-04T00:15:41.012Z,12.05
2023-03-04T00:18:09.365Z,15.85
2023-03-04T00:20:42.319Z,11.90
2023-03-04T00:23:09.913Z,13.90
2023-03-04T00:25:38.292Z,14.38
2023-03-04T00:28:09.371Z,16.73
2023-03-04T00:30:37.821Z,17.75
2023-03-04T00:33:05.447Z,15.50
2023-03-04T00:35:33.039Z,16.90
2023-03-04T00:38:01.897Z,16.85
2023-03-04T00:40:29.480Z,11.27
2023-03-04T00:42:58.301Z,17.13
2023-03-04T00:45:25.782Z,17.65
2023-03-04T00:47:53.333Z,17.10
2023-03-04T00:50:21.134Z,13.90
2023-03-04T00:52:48.679Z,19.33
2023-03-04T00:55:18.370Z,19.30
2023-03-04T00:57:46.297Z,20.27
2023-03-04T01:00:15.137Z,15.35
2023-03-04T01:02:43.142Z,13.80
2023-03-04T01:05:11.039Z,10.73
2023-03-04T01:07:39.154Z,13.80
2023-03-04T01:10:09.147Z,14.10
2023-03-04T01:12:37.997Z,13.80
2023-03-04T01:15:06.347Z,16.95
2023-03-04T01:17:33.900Z,12.30
2023-03-04T01:20:02.307Z,13.52
2023-03-04T01:22:29.830Z,14.00
2023-03-04T01:24:57.670Z,14.55
2023-03-04T01:27:28.302Z,10.82
2023-03-04T01:29:58.112Z,13.30
2023-03-04T01:32:25.735Z,13.38
2023-03-04T01:34:54.368Z,12.73
2023-03-04T01:37:21.980Z,16.17
2023-03-04T01:39:49.597Z,14.60
2023-03-04T01:42:21.420Z,12.43
2023-03-04T01:44:49.885Z,18.83
2023-03-04T01:47:19.781Z,13.95
2023-03-04T01:49:51.800Z,13.32
2023-03-04T01:52:23.304Z,22.10
2023-03-04T01:54:51.429Z,15.15
2023-03-04T01:57:21.131Z,17.45
2023-03-04T02:00:09.369Z,16.40
2023-03-04T02:02:43.138Z,11.25
2023-03-04T02:05:11.196Z,11.88
2023-03-04T02:07:39.017Z,11.30
2023-03-04T02:10:07.543Z,17.60
2023-03-04T02:12:35.362Z,14.43
2023-03-04T02:15:04.257Z,14.00
2023-03-04T02:17:34.391Z,10.25
2023-03-04T02:20:15.309Z,13.43
2023-03-04T02:22:51.348Z,12.23
2023-03-04T02:25:48.579Z,14.13
2023-03-04T02:28:18.310Z,8.93
2023-03-04T02:30:47.376Z,12.93
2023-03-04T02:33:18.531Z,10.68
2023-03-04T02:35:47.037Z,10.18
2023-03-04T02:38:15.033Z,12.80
2023-03-04T02:40:44.829Z,13.80
2023-03-04T02:46:17.375Z,11.32
2023-03-04T02:49:11.305Z,12.25
2023-03-04T02:51:40.920Z,12.77
2023-03-04T02:54:16.307Z,10.57
2023-03-04T02:56:46.973Z,11.30
2023-03-04T02:59:17.105Z,14.60
2023-03-04T03:01:46.413Z,11.60
2023-03-04T03:04:15.420Z,14.30
2023-03-04T03:06:45.757Z,9.90
2023-03-04T03:09:13.880Z,12.00
2023-03-04T03:11:41.394Z,10.13
2023-03-04T03:14:09.638Z,14.07
2023-03-04T03:16:39.766Z,12.68
2023-03-04T03:19:08.641Z,12.35
2023-03-04T03:21:41.300Z,9.25
2023-03-04T03:24:12.750Z,9.07
2023-03-04T03:26:40.885Z,10.85
2023-03-04T03:29:08.989Z,11.57
2023-03-04T03:31:36.714Z,9.20
2023-03-04T03:34:04.335Z,7.65
2023-03-04T03:36:33.247Z,11.02
2023-03-04T03:39:00.988Z,7.00
2023-03-04T03:41:28.750Z,9.15
2023-03-04T03:43:56.900Z,9.80
2023-03-04T03:46:26.298Z,8.18
2023-03-04T03:48:56.663Z,10.95
2023-03-04T03:51:24.307Z,7.63
2023-03-04T03:53:53.219Z,10.15
2023-03-04T03:56:22.317Z,12.55
2023-03-04T03:58:49.884Z,8.82
2023-03-04T04:01:18.335Z,8.05
2023-03-04T04:03:45.815Z,12.27
2023-03-04T04:06:13.401Z,10.52
2023-03-04T04:08:41.109Z,8.00
2023-03-04T04:11:11.368Z,10.98
2023-03-04T04:13:39.452Z,8.60
2023-03-04T04:16:10.415Z,12.43
2023-03-04T04:18:38.306Z,9.00
2023-03-04T04:21:07.392Z,9.57
2023-03-04T04:23:36.331Z,9.18
2023-03-04T04:26:03.870Z,11.68
2023-03-04T04:28:34.510Z,14.75
2023-03-04T04:31:02.380Z,8.57
2023-03-04T04:33:29.976Z,12.98
2023-03-04T04:35:59.358Z,9.05
2023-03-04T04:38:27.079Z,11.25
2023-03-04T04:40:54.712Z,9.30
2023-03-04T04:43:22.230Z,5.70
2023-03-04T04:45:51.143Z,9.27
2023-03-04T04:48:20.316Z,11.07
2023-03-04T04:50:47.815Z,8.57
2023-03-04T04:53:16.739Z,8.38
2023-03-04T04:55:45.443Z,9.75
2023-03-04T04:58:12.949Z,10.20
2023-03-04T05:00:40.603Z,10.07
2023-03-04T05:03:09.663Z,12.10
2023-03-04T05:05:37.653Z,11.07
2023-03-04T05:08:05.609Z,8.05
2023-03-04T05:10:33.823Z,10.30
2023-03-04T05:13:01.774Z,10.32
2023-03-04T05:15:29.353Z,7.70
2023-03-04T05:17:57.357Z,11.02
2023-03-04T05:20:27.066Z,11.60
2023-03-04T05:22:54.671Z,9.85
2023-03-04T05:25:23.300Z,9.07
2023-03-04T05:27:50.790Z,7.75
2023-03-04T05:30:19.472Z,7.40
2023-03-04T05:32:47.363Z,9.27
2023-03-04T05:35:15.736Z,8.55
2023-03-04T05:38:10.972Z,8.45
2023-03-04T05:40:38.875Z,8.40
2023-03-04T05:43:06.849Z,8.13
2023-03-04T05:45:36.333Z,10.20
2023-03-04T05:48:04.443Z,9.48
2023-03-04T05:50:33.305Z,7.90
2023-03-04T05:53:01.124Z,7.22
2023-03-04T05:55:30.173Z,8.93
2023-03-04T06:00:52.875Z,7.78
2023-03-04T06:03:22.438Z,7.93
2023-03-04T06:05:52.390Z,8.57
2023-03-04T06:08:19.896Z,7.55
2023-03-04T06:10:49.100Z,9.30
2023-03-04T06:13:16.637Z,9.95
2023-03-04T06:15:44.448Z,6.57
2023-03-04T06:18:13.325Z,8.80
2023-03-04T06:20:41.095Z,7.00
2023-03-04T06:23:08.812Z,8.32
2023-03-04T06:25:36.443Z,10.60
2023-03-04T06:28:05.474Z,7.90
2023-03-04T06:30:33.103Z,5.47
2023-03-04T06:33:00.771Z,8.02
2023-03-04T06:35:29.338Z,7.10
2023-03-04T06:37:58.312Z,9.95
2023-03-04T06:40:25.848Z,9.45
2023-03-04T06:42:54.758Z,6.63
2023-03-04T06:45:23.656Z,8.48
2023-03-04T06:47:53.314Z,6.93
2023-03-04T06:50:21.049Z,9.07
2023-03-04T06:52:49.329Z,7.03
2023-03-04T06:55:17.012Z,7.75
2023-03-04T06:57:45.526Z,7.43
2023-03-04T07:00:16.100Z,8.30
2023-03-04T07:02:44.923Z,8.18
2023-03-04T07:05:12.748Z,8.70
2023-03-04T07:07:40.253Z,7.35
2023-03-04T07:10:10.009Z,9.70
2023-03-04T07:12:37.588Z,12.55
2023-03-04T07:15:06.817Z,7.85
2023-03-04T07:17:36.322Z,8.32
2023-03-04T07:20:06.380Z,8.30
2023-03-04T07:22:34.310Z,8.52
2023-03-04T07:25:01.817Z,8.88
2023-03-04T07:27:29.339Z,7.72
2023-03-04T07:29:57.384Z,5.93
2023-03-04T07:32:26.902Z,7.10
2023-03-04T07:34:54.481Z,6.50
2023-03-04T07:37:23.532Z,8.50
2023-03-04T07:39:51.040Z,6.28
2023-03-04T07:42:19.755Z,7.57
2023-03-04T07:44:55.135Z,5.30
2023-03-04T07:47:23.350Z,8.10
2023-03-04T07:49:53.209Z,7.82
2023-03-04T07:52:23.112Z,11.02
2023-03-04T07:54:51.282Z,6.70
2023-03-04T07:57:23.315Z,9.85
2023-03-04T07:59:50.794Z,7.00
2023-03-04T08:02:20.935Z,7.03
2023-03-04T08:04:49.319Z,5.68
2023-03-04T08:07:16.967Z,7.25
2023-03-04T08:09:45.791Z,6.03
2023-03-04T08:12:13.302Z,6.55
2023-03-04T08:14:41.812Z,9.15
2023-03-04T08:17:09.770Z,6.13
2023-03-04T08:19:37.409Z,6.78
2023-03-04T08:22:05.788Z,9.10
2023-03-04T08:24:33.638Z,6.88
2023-03-04T08:27:02.541Z,7.70
2023-03-04T08:29:32.319Z,8.63
2023-03-04T08:32:00.880Z,7.65
2023-03-04T08:34:29.903Z,5.85
2023-03-04T08:36:57.654Z,6.10
2023-03-04T08:39:25.887Z,8.38
2023-03-04T08:41:53.430Z,6.95
2023-03-04T08:44:25.100Z,6.10
2023-03-04T08:46:54.381Z,11.80
2023-03-04T08:49:21.955Z,8.90
2023-03-04T08:51:49.802Z,6.75
2023-03-04T08:54:18.836Z,4.57
2023-03-04T08:56:47.314Z,9.00
2023-03-04T08:59:14.814Z,8.15
2023-03-04T09:01:43.930Z,9.25
2023-03-04T09:04:13.330Z,6.20
2023-03-04T09:06:41.367Z,7.68
2023-03-04T09:09:09.191Z,8.32
2023-03-04T09:11:36.970Z,6.63
2023-03-04T09:14:04.737Z,5.13
2023-03-04T09:16:32.220Z,4.35
2023-03-04T09:19:01.183Z,7.20
2023-03-04T09:21:29.332Z,6.28
2023-03-04T09:23:56.857Z,4.47
2023-03-04T09:26:28.090Z,7.25
2023-03-04T09:28:58.463Z,4.80
2023-03-04T09:31:27.584Z,6.95
2023-03-04T09:33:57.306Z,6.30
2023-03-04T09:36:26.315Z,4.10
2023-03-04T09:38:55.802Z,7.03
2023-03-04T09:41:26.922Z,5.38
2023-03-04T09:43:55.487Z,8.35
2023-03-04T09:46:31.743Z,6.88
2023-03-04T09:48:59.527Z,7.80
2023-03-04T09:51:42.902Z,4.13
2023-03-04T09:54:15.386Z,5.55
2023-03-04T09:56:44.462Z,6.97
2023-03-04T09:59:19.294Z,6.65
2023-03-04T10:01:50.804Z,10.52
2023-03-04T10:04:23.510Z,5.70
2023-03-04T10:06:55.104Z,5.35
2023-03-04T10:09:26.924Z,6.65
2023-03-04T10:12:03.932Z,5.60
2023-03-04T10:14:36.074Z,6.22
2023-03-04T10:17:09.749Z,4.82
2023-03-04T10:19:55.177Z,6.85
2023-03-04T10:22:30.841Z,7.68
2023-03-04T10:25:02.345Z,6.53
2023-03-04T10:27:31.335Z,5.55
2023-03-04T10:30:01.586Z,5.85
2023-03-04T10:32:29.943Z,6.28
2023-03-04T10:34:57.665Z,5.53
2023-03-04T10:37:44.896Z,4.68
2023-03-04T10:40:21.670Z,4.97
2023-03-04T10:42:50.950Z,4.78
2023-03-04T10:45:24.076Z,4.90
2023-03-04T10:47:58.301Z,5.13
2023-03-04T10:50:28.376Z,4.13
2023-03-04T10:52:57.769Z,3.78
2023-03-04T10:55:28.482Z,6.28
2023-03-04T10:58:03.186Z,3.55
2023-03-04T11:00:33.240Z,5.30
2023-03-04T11:03:25.961Z,5.15
2023-03-04T11:06:11.377Z,5.47
2023-03-04T11:08:43.921Z,6.18
2023-03-04T11:11:27.378Z,4.63
2023-03-04T11:14:01.204Z,4.75
2023-03-04T11:16:30.938Z,3.45
2023-03-04T11:19:01.449Z,6.68
2023-03-04T11:21:32.838Z,5.30
2023-03-04T11:24:04.494Z,5.43
2023-03-04T11:26:37.347Z,4.32
2023-03-04T11:29:15.278Z,7.13
2023-03-04T11:31:50.120Z,4.05
2023-03-04T11:34:30.875Z,4.72
2023-03-04T11:37:03.465Z,5.20
2023-03-04T11:39:38.321Z,3.70
2023-03-04T11:42:17.371Z,5.22
2023-03-04T11:44:45.177Z,7.78
2023-03-04T11:47:35.901Z,5.57
2023-03-04T11:50:16.386Z,5.65
2023-03-04T11:53:05.440Z,3.85
2023-03-04T11:55:41.901Z,3.05
2023-03-04T11:58:26.483Z,3.72
2023-03-04T12:01:02.179Z,2.70
2023-03-04T12:03:53.441Z,4.57
2023-03-04T12:06:34.450Z,4.93
2023-03-04T12:09:16.166Z,6.38
2023-03-04T12:11:56.785Z,3.55
2023-03-04T12:14:29.341Z,4.63
2023-03-04T12:17:32.330Z,4.43
2023-03-04T12:20:31.117Z,6.53
2023-03-04T12:23:11.793Z,5.65
2023-03-04T12:25:43.297Z,5.53
2023-03-04T12:28:52.468Z,5.30
2023-03-04T12:31:34.694Z,5.88
2023-03-04T12:34:44.307Z,5.65
2023-03-04T12:37:23.310Z,4.13
2023-03-04T12:40:07.065Z,7.03
2023-03-04T12:42:43.397Z,5.82
2023-03-04T12:45:22.150Z,7.47
2023-03-04T12:48:03.427Z,8.48
2023-03-04T12:51:02.053Z,6.40
2023-03-04T12:53:40.323Z,9.50
2023-03-04T12:56:22.937Z,8.13
2023-03-04T12:58:50.942Z,7.70
2023-03-04T13:01:27.346Z,7.50
2023-03-04T13:04:05.391Z,5.88
2023-03-04T13:06:43.533Z,9.52
2023-03-04T13:09:20.784Z,8.98
2023-03-04T13:12:03.324Z,5.75
2023-03-04T13:14:33.142Z,4.63
2023-03-04T13:17:02.333Z,6.40
2023-03-04T13:19:50.788Z,7.55
2023-03-04T13:22:35.352Z,6.13
2023-03-04T13:25:34.220Z,9.27
2023-03-04T13:28:20.775Z,7.70
2023-03-04T13:31:16.486Z,5.63
2023-03-04T13:34:03.330Z,7.13
2023-03-04T13:37:00.662Z,7.05
2023-03-04T13:39:32.007Z,7.47
2023-03-04T13:41:59.997Z,8.90
2023-03-04T13:45:04.477Z,10.02
2023-03-04T13:47:44.392Z,6.88
2023-03-04T13:50:39.378Z,9.52
2023-03-04T13:53:44.403Z,9.65
2023-03-04T13:56:43.328Z,7.85
2023-03-04T13:59:29.506Z,8.93
2023-03-04T14:02:04.328Z,9.07
2023-03-04T14:04:36.347Z,5.20
2023-03-04T14:07:21.355Z,5.60
2023-03-04T14:09:57.608Z,5.18
2023-03-04T14:12:29.324Z,4.78
2023-03-04T14:15:00.027Z,4.60
2023-03-04T14:17:31.147Z,3.58
2023-03-04T14:20:00.795Z,4.20
2023-03-04T14:22:31.155Z,6.38
2023-03-04T14:25:04.332Z,6.18
2023-03-04T14:27:36.976Z,6.60
2023-03-04T14:32:36.443Z,6.60
2023-03-04T14:35:07.325Z,7.80
2023-03-04T14:37:43.413Z,8.90
2023-03-04T14:40:21.658Z,5.85
2023-03-04T14:43:01.369Z,8.73
2023-03-04T14:45:31.030Z,6.60
2023-03-04T14:48:05.789Z,10.23
2023-03-04T14:50:37.673Z,9.93
2023-03-04T14:53:15.487Z,7.03
2023-03-04T14:55:58.340Z,6.93
2023-03-04T14:58:30.511Z,8.07
2023-03-04T15:03:35.200Z,7.47
2023-03-04T15:06:19.279Z,7.90
2023-03-04T15:08:48.314Z,6.53
2023-03-04T15:11:24.498Z,8.45
2023-03-04T15:13:56.460Z,10.38
2023-03-04T15:18:56.407Z,6.10
2023-03-04T15:21:34.905Z,8.48
2023-03-04T15:24:03.653Z,7.57
2023-03-04T15:26:32.584Z,10.75
2023-03-04T15:29:05.024Z,11.45
2023-03-04T15:31:32.573Z,10.10
2023-03-04T15:34:00.818Z,10.02
2023-03-04T15:36:28.340Z,7.57
2023-03-04T15:39:01.324Z,8.88
2023-03-04T15:43:57.231Z,9.48
2023-03-04T15:46:26.152Z,7.53
2023-03-04T15:48:53.755Z,9.75
2023-03-04T15:51:23.378Z,7.55
2023-03-04T15:53:52.461Z,9.82
2023-03-04T15:56:22.136Z,6.97
2023-03-04T15:58:55.064Z,8.75
2023-03-04T16:01:25.356Z,11.30
2023-03-04T16:03:54.927Z,9.40
2023-03-04T16:06:27.326Z,9.85
2023-03-04T16:08:54.883Z,7.40
2023-03-04T16:11:25.002Z,8.02
2023-03-04T16:13:52.995Z,6.40
2023-03-04T16:19:13.683Z,6.80
2023-03-04T16:21:41.728Z,9.25
2023-03-04T16:24:16.812Z,9.73
2023-03-04T16:26:44.336Z,12.48
2023-03-04T16:29:12.368Z,7.28
2023-03-04T16:31:39.940Z,7.50
2023-03-04T16:34:07.626Z,12.50
2023-03-04T16:36:36.950Z,9.43
2023-03-04T16:39:10.949Z,9.60
2023-03-04T16:41:38.785Z,8.50
2023-03-04T16:44:09.008Z,6.68
2023-03-04T16:46:37.373Z,6.93
2023-03-04T16:49:05.776Z,7.20
2023-03-04T16:51:40.627Z,7.30
2023-03-04T16:54:15.491Z,9.27
2023-03-04T16:56:43.058Z,8.25
2023-03-04T16:59:18.319Z,7.05
2023-03-04T17:01:46.573Z,5.25
2023-03-04T17:04:14.493Z,8.00
2023-03-04T17:06:45.385Z,6.40
2023-03-04T17:09:13.848Z,9.32
2023-03-04T17:11:41.502Z,8.65
2023-03-04T17:14:09.316Z,7.07
2023-03-04T17:16:36.966Z,7.70
2023-03-04T17:19:04.545Z,5.15
2023-03-04T17:21:32.380Z,5.97
2023-03-04T17:24:03.026Z,7.43
2023-03-04T17:26:31.337Z,10.50
2023-03-04T17:28:58.924Z,10.52
2023-03-04T17:31:26.622Z,10.40
2023-03-04T17:33:54.853Z,9.98
2023-03-04T17:36:22.512Z,10.07
2023-03-04T17:38:51.960Z,10.00
2023-03-04T17:41:21.957Z,9.32
2023-03-04T17:43:51.047Z,11.60
2023-03-04T17:46:20.922Z,10.32
2023-03-04T17:48:48.773Z,8.88
2023-03-04T17:51:16.293Z,10.10
2023-03-04T17:53:43.840Z,9.27
2023-03-04T17:56:12.612Z,12.30
2023-03-04T17:58:41.979Z,11.43
2023-03-04T18:01:17.566Z,6.43
2023-03-04T18:03:45.184Z,9.13
2023-03-04T18:06:14.677Z,8.77
2023-03-04T18:08:42.321Z,6.10
2023-03-04T18:11:10.184Z,9.98
2023-03-04T18:13:39.030Z,7.63
2023-03-04T18:16:11.684Z,13.77
2023-03-04T18:18:40.676Z,12.80
2023-03-04T18:21:08.589Z,10.90
2023-03-04T18:23:37.828Z,12.77
2023-03-04T18:26:05.406Z,8.98
2023-03-04T18:28:33.801Z,8.40
2023-03-04T18:31:01.708Z,10.55
2023-03-04T18:33:32.413Z,7.50
2023-03-04T18:36:03.962Z,13.00
2023-03-04T18:38:32.312Z,11.43
2023-03-04T18:41:00.963Z,7.72
2023-03-04T18:43:28.864Z,8.07
2023-03-04T18:46:05.313Z,7.15
2023-03-04T18:49:03.184Z,8.27
2023-03-04T18:51:31.348Z,6.07
2023-03-04T18:53:59.778Z,7.97
2023-03-04T18:56:37.520Z,10.88
2023-03-04T18:59:07.353Z,8.40
2023-03-04T19:01:35.264Z,9.52
2023-03-04T19:04:05.591Z,10.60
2023-03-04T19:06:34.566Z,11.73
2023-03-04T19:09:03.477Z,10.77
2023-03-04T19:11:31.578Z,8.05
2023-03-04T19:13:59.336Z,7.32
2023-03-04T19:16:27.042Z,12.50
2023-03-04T19:18:54.815Z,7.38
2023-03-04T19:21:23.632Z,11.85
2023-03-04T19:23:51.384Z,9.77
2023-03-04T19:26:19.028Z,7.38
2023-03-04T19:28:46.524Z,9.25
2023-03-04T19:31:14.175Z,8.27
2023-03-04T19:33:42.347Z,8.98
2023-03-04T19:36:10.544Z,6.60
2023-03-04T19:38:40.075Z,10.35
2023-03-04T19:41:11.938Z,6.28
2023-03-04T19:43:39.645Z,6.43
2023-03-04T19:46:08.841Z,8.50
2023-03-04T19:48:37.724Z,7.43
2023-03-04T19:51:14.002Z,10.65
2023-03-04T19:53:45.329Z,8.45
2023-03-04T19:56:18.403Z,7.32
2023-03-04T19:58:47.001Z,8.25
2023-03-04T20:01:27.444Z,6.93
2023-03-04T20:03:55.692Z,8.70
2023-03-04T20:06:23.807Z,7.63
2023-03-04T20:08:53.044Z,14.18
2023-03-04T20:11:20.582Z,11.68
2023-03-04T20:13:48.156Z,8.95
2023-03-04T20:16:15.755Z,10.80
2023-03-04T20:18:43.998Z,9.73
2023-03-04T20:21:12.611Z,6.32
2023-03-04T20:23:40.790Z,7.90
2023-03-04T20:26:09.642Z,8.45
2023-03-04T20:28:50.058Z,8.80
2023-03-04T20:31:21.577Z,6.97
2023-03-04T20:33:50.985Z,8.05
2023-03-04T20:36:19.588Z,7.20
2023-03-04T20:38:48.293Z,8.40
2023-03-04T20:41:17.664Z,7.15
2023-03-04T20:43:49.065Z,6.82
2023-03-04T20:46:32.253Z,8.68
2023-03-04T20:49:02.021Z,6.97
2023-03-04T20:51:30.452Z,9.48
2023-03-04T20:53:59.329Z,10.38
2023-03-04T20:56:29.144Z,10.20
2023-03-04T20:58:58.341Z,7.40
2023-03-04T21:01:26.717Z,8.75
2023-03-04T21:03:54.336Z,11.70
2023-03-04T21:06:25.086Z,8.52
2023-03-04T21:08:52.780Z,7.43
2023-03-04T21:11:20.745Z,8.02
2023-03-04T21:13:55.836Z,8.48
2023-03-04T21:16:27.445Z,7.95
2023-03-04T21:18:54.982Z,7.65
2023-03-04T21:21:24.735Z,8.57
2023-03-04T21:23:55.512Z,8.38
2023-03-04T21:26:24.308Z,7.35
2023-03-04T21:28:54.084Z,9.43
2023-03-04T21:31:24.321Z,9.40
2023-03-04T21:33:53.642Z,8.52
2023-03-04T21:36:21.801Z,8.02
2023-03-04T21:38:49.759Z,6.95
2023-03-04T21:41:19.588Z,7.57
2023-03-04T21:43:47.194Z,7.72
2023-03-04T21:46:17.654Z,6.57
2023-03-04T21:48:47.442Z,7.78
2023-03-04T21:51:17.433Z,7.72
2023-03-04T21:53:45.900Z,9.10
2023-03-04T21:56:14.071Z,10.90
2023-03-04T21:58:42.553Z,6.05
2023-03-04T22:01:11.448Z,8.30
2023-03-04T22:03:40.578Z,9.45
2023-03-04T22:06:10.172Z,8.38
2023-03-04T22:08:38.711Z,11.85
2023-03-04T22:11:07.705Z,9.23
2023-03-04T22:13:35.603Z,7.45
2023-03-04T22:16:03.277Z,6.57
2023-03-04T22:18:31.738Z,8.18
2023-03-04T22:21:04.434Z,7.93
2023-03-04T22:23:33.443Z,9.10
2023-03-04T22:26:03.342Z,9.20
2023-03-04T22:28:31.658Z,7.78
2023-03-04T22:30:59.836Z,7.18
2023-03-04T22:33:28.419Z,8.20
2023-03-04T22:35:56.152Z,8.90
2023-03-04T22:38:25.061Z,5.82
2023-03-04T22:40:53.396Z,10.07
2023-03-04T22:43:21.152Z,10.93
2023-03-04T22:45:49.409Z,7.47
2023-03-04T22:48:16.956Z,6.97
2023-03-04T22:50:44.447Z,6.85
2023-03-04T22:53:11.952Z,8.02
2023-03-04T22:55:40.800Z,10.57
2023-03-04T22:58:08.439Z,7.70
2023-03-04T23:00:38.033Z,9.10
2023-03-04T23:03:06.318Z,6.47
2023-03-04T23:05:34.387Z,5.15
2023-03-04T23:08:01.897Z,7.68
2023-03-04T23:10:29.717Z,11.98
2023-03-04T23:15:51.364Z,7.38
2023-03-04T23:18:19.054Z,10.65
2023-03-04T23:20:47.445Z,7.95
2023-03-04T23:23:15.800Z,11.05
2023-03-04T23:25:43.408Z,6.35
2023-03-04T23:28:13.555Z,6.93
2023-03-04T23:30:41.179Z,8.80
2023-03-04T23:33:08.647Z,13.63
2023-03-04T23:35:36.333Z,8.68
2023-03-04T23:38:03.839Z,8.68
2023-03-04T23:40:33.377Z,9.30
2023-03-04T23:43:03.782Z,8.40
2023-03-04T23:45:33.244Z,7.15
2023-03-04T23:48:01.437Z,7.15
2023-03-04T23:50:29.046Z,8.27
2023-03-04T23:52:57.436Z,9.50
2023-03-04T23:55:24.926Z,8.05
2023-03-04T23:57:52.440Z,9.63
